createdAt,value
2022-12-29T00:01:36.471Z,100816.35
2022-12-29T00:03:52.937Z,100815.55
2022-12-29T00:06:07.035Z,100811.86
2022-12-29T00:08:20.847Z,100807.34
2022-12-29T00:10:37.030Z,100803.02
2022-12-29T00:13:10.167Z,100799.65
2022-12-29T00:15:42.138Z,100799.41
2022-12-29T00:17:55.912Z,100802.09
2022-12-29T00:20:26.528Z,100800.70
2022-12-29T00:22:57.271Z,100800.06
2022-12-29T00:25:29.618Z,100802.68
2022-12-29T00:28:06.386Z,100806.05
2022-12-29T00:30:39.305Z,100802.14
2022-12-29T00:33:09.471Z,100804.39
2022-12-29T00:35:29.967Z,100801.60
2022-12-29T00:38:03.267Z,100794.14
2022-12-29T00:40:34.198Z,100798.66
2022-12-29T00:43:10.567Z,100797.67
2022-12-29T00:45:27.558Z,100799.40
2022-12-29T00:47:45.737Z,100802.39
2022-12-29T00:50:01.323Z,100806.30
2022-12-29T00:52:17.075Z,100806.84
2022-12-29T00:54:38.541Z,100809.16
2022-12-29T00:56:53.751Z,100806.68
2022-12-29T00:59:10.609Z,100799.13
2022-12-29T01:01:25.501Z,100800.50
2022-12-29T01:03:39.957Z,100801.70
2022-12-29T01:05:55.826Z,100799.89
2022-12-29T01:08:10.580Z,100799.71
2022-12-29T01:10:24.683Z,100794.23
2022-12-29T01:12:47.288Z,100795.73
2022-12-29T01:15:03.780Z,100795.77
2022-12-29T01:17:17.849Z,100794.33
2022-12-29T01:19:32.088Z,100795.43
2022-12-29T01:21:45.762Z,100790.58
2022-12-29T01:23:59.260Z,100793.30
2022-12-29T01:26:18.677Z,100788.49
2022-12-29T01:28:32.555Z,100789.73
2022-12-29T01:30:46.367Z,100786.11
2022-12-29T01:33:00.212Z,100782.72
2022-12-29T01:35:15.071Z,100781.34
2022-12-29T01:37:28.714Z,100775.30
2022-12-29T01:39:42.757Z,100765.67
2022-12-29T01:41:56.843Z,100762.70
2022-12-29T01:44:52.093Z,100756.33
2022-12-29T01:47:06.032Z,100745.88
2022-12-29T01:49:23.906Z,100743.73
2022-12-29T01:51:40.044Z,100738.23
2022-12-29T01:53:54.209Z,100737.30
2022-12-29T01:56:12.793Z,100739.69
2022-12-29T01:58:29.142Z,100738.74
2022-12-29T02:00:43.828Z,100734.23
2022-12-29T02:02:59.125Z,100736.80
2022-12-29T02:05:20.655Z,100734.55
2022-12-29T02:07:36.008Z,100739.31
2022-12-29T02:09:51.043Z,100739.65
2022-12-29T02:12:05.600Z,100742.02
2022-12-29T02:14:20.245Z,100738.06
2022-12-29T02:16:49.800Z,100738.19
2022-12-29T02:19:32.581Z,100733.81
2022-12-29T02:21:57.360Z,100736.77
2022-12-29T02:24:42.057Z,100737.80
2022-12-29T02:27:13.717Z,100734.52
2022-12-29T02:29:54.603Z,100739.08
2022-12-29T02:32:12.873Z,100739.70
2022-12-29T02:34:37.806Z,100735.10
2022-12-29T02:37:01.392Z,100736.54
2022-12-29T02:39:25.116Z,100733.07
2022-12-29T02:41:44.941Z,100730.88
2022-12-29T02:44:04.717Z,100732.23
2022-12-29T02:46:24.207Z,100735.72
2022-12-29T02:48:42.792Z,100735.20
2022-12-29T02:51:02.676Z,100741.27
2022-12-29T02:53:40.175Z,100739.16
2022-12-29T02:55:57.307Z,100736.58
2022-12-29T02:58:24.308Z,100732.76
2022-12-29T03:00:41.669Z,100732.27
2022-12-29T03:03:20.967Z,100732.85
2022-12-29T03:06:00.544Z,100729.77
2022-12-29T03:08:23.863Z,100728.39
2022-12-29T03:10:49.690Z,100726.94
2022-12-29T03:13:30.146Z,100726.75
2022-12-29T03:16:05.312Z,100718.34
2022-12-29T03:18:26.444Z,100712.09
2022-12-29T03:20:47.636Z,100710.14
2022-12-29T03:23:06.203Z,100711.94
2022-12-29T03:25:25.372Z,100710.16
2022-12-29T03:27:43.013Z,100705.20
2022-12-29T03:29:59.638Z,100708.81
2022-12-29T03:32:17.066Z,100704.11
2022-12-29T03:34:33.523Z,100701.33
2022-12-29T03:36:52.539Z,100695.58
2022-12-29T03:39:14.052Z,100697.38
2022-12-29T03:41:33.225Z,100699.35
2022-12-29T03:43:48.736Z,100700.63
2022-12-29T03:46:02.818Z,100695.86
2022-12-29T03:48:16.449Z,100693.61
2022-12-29T03:50:31.189Z,100696.20
2022-12-29T03:52:45.098Z,100694.59
2022-12-29T03:54:59.087Z,100686.41
2022-12-29T03:57:13.347Z,100688.51
2022-12-29T03:59:48.835Z,100687.20
2022-12-29T04:02:02.730Z,100682.30
2022-12-29T04:04:16.617Z,100684.60
2022-12-29T04:06:31.761Z,100682.15
2022-12-29T04:08:49.680Z,100681.52
2022-12-29T04:11:03.357Z,100673.83
2022-12-29T04:13:16.781Z,100669.04
2022-12-29T04:15:31.896Z,100668.14
2022-12-29T04:17:46.184Z,100665.89
2022-12-29T04:20:20.769Z,100661.57
2022-12-29T04:22:34.820Z,100650.85
2022-12-29T04:24:49.027Z,100650.94
2022-12-29T04:27:02.601Z,100648.69
2022-12-29T04:29:36.261Z,100641.84
2022-12-29T04:32:06.268Z,100641.01
2022-12-29T04:34:23.843Z,100643.42
2022-12-29T04:36:37.304Z,100642.44
2022-12-29T04:38:51.379Z,100641.45
2022-12-29T04:41:06.320Z,100639.07
2022-12-29T04:43:23.839Z,100630.14
2022-12-29T04:46:21.437Z,100629.92
2022-12-29T04:48:58.443Z,100632.54
2022-12-29T04:51:34.205Z,100628.23
2022-12-29T04:53:47.936Z,100625.38
2022-12-29T04:56:01.802Z,100622.36
2022-12-29T04:58:22.210Z,100625.04
2022-12-29T05:00:38.864Z,100623.79
2022-12-29T05:02:53.184Z,100619.94
2022-12-29T05:05:07.422Z,100618.48
2022-12-29T05:07:25.353Z,100613.52
2022-12-29T05:09:40.269Z,100620.92
2022-12-29T05:11:54.034Z,100614.45
2022-12-29T05:14:07.686Z,100613.39
2022-12-29T05:16:22.700Z,100609.98
2022-12-29T05:18:36.745Z,100607.62
2022-12-29T05:20:51.511Z,100605.59
2022-12-29T05:23:07.142Z,100607.11
2022-12-29T05:25:20.808Z,100607.74
2022-12-29T05:27:40.950Z,100603.61
2022-12-29T05:30:21.546Z,100599.40
2022-12-29T05:32:35.756Z,100591.55
2022-12-29T05:34:49.250Z,100592.91
2022-12-29T05:37:05.090Z,100587.81
2022-12-29T05:39:19.252Z,100588.98
2022-12-29T05:41:37.763Z,100589.38
2022-12-29T05:44:21.309Z,100584.63
2022-12-29T05:46:57.890Z,100586.55
2022-12-29T05:49:22.080Z,100578.04
2022-12-29T05:51:52.623Z,100577.25
2022-12-29T05:54:06.387Z,100573.81
2022-12-29T05:56:20.462Z,100574.83
2022-12-29T05:58:39.516Z,100567.73
2022-12-29T06:00:53.217Z,100565.52
2022-12-29T06:03:06.851Z,100562.60
2022-12-29T06:05:20.890Z,100557.77
2022-12-29T06:07:34.788Z,100552.09
2022-12-29T06:09:50.440Z,100550.83
2022-12-29T06:12:04.089Z,100544.88
2022-12-29T06:14:17.868Z,100537.84
2022-12-29T06:16:31.392Z,100535.88
2022-12-29T06:18:47.240Z,100531.74
2022-12-29T06:21:03.595Z,100531.54
2022-12-29T06:23:17.188Z,100521.16
2022-12-29T06:25:33.080Z,100516.81
2022-12-29T06:27:47.283Z,100511.95
2022-12-29T06:30:01.761Z,100510.46
2022-12-29T06:32:16.365Z,100503.80
2022-12-29T06:34:35.466Z,100495.93
2022-12-29T06:36:48.854Z,100498.55
2022-12-29T06:39:02.745Z,100495.70
2022-12-29T06:41:16.556Z,100492.73
2022-12-29T06:43:49.394Z,100492.91
2022-12-29T06:46:38.715Z,100485.09
2022-12-29T06:48:52.257Z,100487.95
2022-12-29T06:51:05.495Z,100487.63
2022-12-29T06:53:18.873Z,100487.54
2022-12-29T06:55:32.211Z,100481.36
2022-12-29T06:57:45.534Z,100481.05
2022-12-29T06:59:59.661Z,100478.67
2022-12-29T07:02:15.719Z,100477.59
2022-12-29T07:04:30.289Z,100474.27
2022-12-29T07:06:44.770Z,100469.95
2022-12-29T07:08:59.572Z,100474.84
2022-12-29T07:11:13.567Z,100472.14
2022-12-29T07:13:27.612Z,100474.60
2022-12-29T07:15:41.302Z,100472.61
2022-12-29T07:17:55.228Z,100468.75
2022-12-29T07:20:09.890Z,100469.88
2022-12-29T07:22:23.636Z,100464.08
2022-12-29T07:24:37.472Z,100460.09
2022-12-29T07:26:51.415Z,100465.55
2022-12-29T07:29:06.681Z,100463.19
2022-12-29T07:31:23.821Z,100459.31
2022-12-29T07:33:37.753Z,100453.38
2022-12-29T07:35:51.440Z,100456.02
2022-12-29T07:38:05.213Z,100457.40
2022-12-29T07:40:20.245Z,100464.29
2022-12-29T07:42:33.910Z,100455.34
2022-12-29T07:44:47.794Z,100458.09
2022-12-29T07:47:20.168Z,100454.66
2022-12-29T07:49:33.872Z,100458.34
2022-12-29T07:51:47.782Z,100454.95
2022-12-29T07:54:02.330Z,100453.34
2022-12-29T07:56:16.407Z,100453.63
2022-12-29T07:58:29.944Z,100446.70
2022-12-29T08:00:44.974Z,100441.75
2022-12-29T08:02:58.512Z,100436.30
2022-12-29T08:05:13.133Z,100435.60
2022-12-29T08:07:26.647Z,100433.69
2022-12-29T08:09:40.494Z,100435.48
2022-12-29T08:11:54.510Z,100426.87
2022-12-29T08:14:08.028Z,100424.34
2022-12-29T08:16:22.093Z,100423.13
2022-12-29T08:18:35.671Z,100417.58
2022-12-29T08:20:54.037Z,100413.10
2022-12-29T08:23:09.369Z,100408.48
2022-12-29T08:25:23.667Z,100407.96
2022-12-29T08:27:37.736Z,100402.95
2022-12-29T08:29:51.762Z,100401.37
2022-12-29T08:32:05.462Z,100402.06
2022-12-29T08:34:18.992Z,100400.88
2022-12-29T08:36:33.231Z,100400.30
2022-12-29T08:38:47.316Z,100398.13
2022-12-29T08:41:01.695Z,100396.68
2022-12-29T08:43:18.494Z,100398.15
2022-12-29T08:45:32.127Z,100398.85
2022-12-29T08:47:45.811Z,100391.17
2022-12-29T08:49:59.606Z,100394.24
2022-12-29T08:52:13.142Z,100394.41
2022-12-29T08:54:26.558Z,100388.61
2022-12-29T08:56:40.061Z,100391.29
2022-12-29T08:58:53.984Z,100389.36
2022-12-29T09:01:09.620Z,100387.96
2022-12-29T09:03:45.940Z,100386.74
2022-12-29T09:05:58.541Z,100384.71
2022-12-29T09:08:12.698Z,100382.83
2022-12-29T09:10:26.481Z,100380.38
2022-12-29T09:12:40.510Z,100378.30
2022-12-29T09:14:55.368Z,100374.27
2022-12-29T09:17:25.780Z,100371.30
2022-12-29T09:19:39.896Z,100368.59
2022-12-29T09:21:53.747Z,100366.20
2022-12-29T09:24:07.479Z,100365.33
2022-12-29T09:26:21.256Z,100363.52
2022-12-29T09:28:35.068Z,100360.78
2022-12-29T09:30:48.856Z,100359.79
2022-12-29T09:33:02.197Z,100357.38
2022-12-29T09:35:15.713Z,100355.82
2022-12-29T09:37:29.433Z,100358.66
2022-12-29T09:39:42.913Z,100353.56
2022-12-29T09:42:06.151Z,100348.31
2022-12-29T09:44:27.644Z,100351.35
2022-12-29T09:46:44.856Z,100350.02
2022-12-29T09:49:12.544Z,100346.70
2022-12-29T09:51:31.097Z,100345.17
2022-12-29T09:53:48.372Z,100349.11
2022-12-29T09:56:05.822Z,100350.27
2022-12-29T09:58:26.221Z,100348.77
2022-12-29T10:00:54.596Z,100349.41
2022-12-29T10:03:18.878Z,100346.42
2022-12-29T10:05:45.298Z,100338.84
2022-12-29T10:08:08.503Z,100338.90
2022-12-29T10:10:34.728Z,100346.25
2022-12-29T10:13:03.394Z,100340.69
2022-12-29T10:15:29.342Z,100338.02
2022-12-29T10:17:52.893Z,100333.19
2022-12-29T10:20:28.712Z,100332.86
2022-12-29T10:23:15.567Z,100330.02
2022-12-29T10:25:33.394Z,100329.59
2022-12-29T10:27:48.254Z,100331.14
2022-12-29T10:30:04.081Z,100329.52
2022-12-29T10:32:28.688Z,100326.76
2022-12-29T10:34:48.715Z,100320.73
2022-12-29T10:37:07.819Z,100321.70
2022-12-29T10:39:28.874Z,100318.10
2022-12-29T10:41:51.103Z,100315.37
2022-12-29T10:44:05.640Z,100312.56
2022-12-29T10:46:23.734Z,100310.95
2022-12-29T10:48:38.783Z,100307.45
2022-12-29T10:50:57.224Z,100304.05
2022-12-29T10:53:23.607Z,100306.55
2022-12-29T10:55:40.998Z,100303.11
2022-12-29T10:57:55.631Z,100300.73
2022-12-29T11:00:19.091Z,100302.92
2022-12-29T11:03:05.399Z,100293.97
2022-12-29T11:05:27.312Z,100293.58
2022-12-29T11:07:41.170Z,100288.58
2022-12-29T11:09:54.908Z,100288.89
2022-12-29T11:12:27.430Z,100281.68
2022-12-29T11:14:43.034Z,100274.06
2022-12-29T11:17:04.519Z,100268.59
2022-12-29T11:19:37.476Z,100258.95
2022-12-29T11:21:54.869Z,100254.64
2022-12-29T11:24:22.597Z,100250.23
2022-12-29T11:26:36.526Z,100246.05
2022-12-29T11:28:51.732Z,100241.84
2022-12-29T11:31:08.618Z,100238.42
2022-12-29T11:33:24.637Z,100233.67
2022-12-29T11:35:43.320Z,100234.89
2022-12-29T11:38:03.641Z,100234.73
2022-12-29T11:40:25.353Z,100231.77
2022-12-29T11:42:42.741Z,100242.23
2022-12-29T11:44:58.098Z,100232.96
2022-12-29T11:47:13.979Z,100229.11
2022-12-29T11:49:30.770Z,100222.49
2022-12-29T11:51:49.810Z,100218.19
2022-12-29T11:54:05.609Z,100211.03
2022-12-29T11:56:22.290Z,100207.84
2022-12-29T11:58:40.924Z,100200.67
2022-12-29T12:00:56.684Z,100189.92
2022-12-29T12:03:17.915Z,100184.42
2022-12-29T12:05:38.311Z,100182.13
2022-12-29T12:07:54.584Z,100181.94
2022-12-29T12:10:11.345Z,100177.28
2022-12-29T12:12:32.780Z,100172.20
2022-12-29T12:14:55.897Z,100166.75
2022-12-29T12:17:21.628Z,100165.58
2022-12-29T12:19:43.075Z,100163.02
2022-12-29T12:22:03.591Z,100159.98
2022-12-29T12:24:40.552Z,100158.21
2022-12-29T12:27:07.156Z,100149.84
2022-12-29T12:29:27.386Z,100148.77
2022-12-29T12:31:52.584Z,100141.67
2022-12-29T12:34:11.404Z,100138.98
2022-12-29T12:36:51.611Z,100135.60
2022-12-29T12:39:12.232Z,100129.48
2022-12-29T12:41:38.335Z,100123.55
2022-12-29T12:43:55.793Z,100118.14
2022-12-29T12:46:24.139Z,100113.35
2022-12-29T12:48:58.214Z,100114.06
2022-12-29T12:51:22.681Z,100104.25
2022-12-29T12:53:52.019Z,100084.38
2022-12-29T12:56:20.494Z,100080.81
2022-12-29T12:58:46.001Z,100076.46
2022-12-29T13:01:11.886Z,100084.79
2022-12-29T13:03:41.026Z,100085.12
2022-12-29T13:06:20.683Z,100088.02
2022-12-29T13:08:54.958Z,100088.35
2022-12-29T13:11:18.876Z,100084.81
2022-12-29T13:14:02.327Z,100087.39
2022-12-29T13:16:23.868Z,100085.79
2022-12-29T13:18:48.034Z,100088.16
2022-12-29T13:21:08.106Z,100102.36
2022-12-29T13:23:30.237Z,100096.77
2022-12-29T13:25:52.279Z,100105.44
2022-12-29T13:28:10.239Z,100108.79
2022-12-29T13:30:26.350Z,100107.54
2022-12-29T13:32:52.561Z,100099.44
2022-12-29T13:35:16.264Z,100093.89
2022-12-29T13:37:36.050Z,100077.83
2022-12-29T13:39:52.633Z,100078.94
2022-12-29T13:42:07.326Z,100060.64
2022-12-29T13:44:33.293Z,100068.95
2022-12-29T13:46:53.271Z,100055.72
2022-12-29T13:49:10.993Z,100041.77
2022-12-29T13:51:28.295Z,100032.28
2022-12-29T13:53:52.987Z,100039.27
2022-12-29T13:56:12.264Z,100042.05
2022-12-29T13:58:32.166Z,100046.73
2022-12-29T14:00:56.692Z,100051.20
2022-12-29T14:03:30.788Z,100045.14
2022-12-29T14:05:44.614Z,100050.61
2022-12-29T14:08:05.799Z,100043.52
2022-12-29T14:10:37.587Z,100035.34
2022-12-29T14:12:52.108Z,100030.14
2022-12-29T14:15:19.686Z,100021.80
2022-12-29T14:17:33.225Z,100015.09
2022-12-29T14:19:49.814Z,100012.48
2022-12-29T14:22:06.680Z,100016.46
2022-12-29T14:24:48.148Z,100000.23
2022-12-29T14:27:01.626Z,100003.55
2022-12-29T14:29:50.565Z,99992.45
2022-12-29T14:32:04.253Z,99990.17
2022-12-29T14:34:52.162Z,99988.56
2022-12-29T14:37:26.619Z,99992.35
2022-12-29T14:39:45.652Z,99991.74
2022-12-29T14:42:08.324Z,99994.29
2022-12-29T14:44:25.548Z,99975.61
2022-12-29T14:47:02.930Z,99981.34
2022-12-29T14:49:23.633Z,99985.88
2022-12-29T14:51:41.777Z,99976.92
2022-12-29T14:53:56.844Z,99967.73
2022-12-29T14:56:13.754Z,99965.05
2022-12-29T14:58:31.980Z,99967.86
2022-12-29T15:00:46.538Z,99965.76
2022-12-29T15:03:08.896Z,99969.34
2022-12-29T15:05:37.338Z,99975.80
2022-12-29T15:07:51.952Z,99965.87
2022-12-29T15:10:10.990Z,99970.38
2022-12-29T15:12:34.768Z,99975.66
2022-12-29T15:14:56.699Z,99978.14
2022-12-29T15:17:28.010Z,99971.21
2022-12-29T15:19:41.700Z,99969.40
2022-12-29T15:22:08.511Z,99974.10
2022-12-29T15:24:22.733Z,99977.23
2022-12-29T15:26:48.480Z,99976.29
2022-12-29T15:29:02.211Z,99980.83
2022-12-29T15:31:23.534Z,99972.44
2022-12-29T15:33:45.868Z,99994.21
2022-12-29T15:36:01.642Z,99990.33
2022-12-29T15:38:32.236Z,99997.99
2022-12-29T15:40:54.615Z,99998.73
2022-12-29T15:43:28.238Z,100002.81
2022-12-29T15:45:42.651Z,100017.70
2022-12-29T15:47:58.973Z,100016.02
2022-12-29T15:50:19.612Z,100019.16
2022-12-29T15:52:35.570Z,100022.05
2022-12-29T15:54:50.967Z,100025.21
2022-12-29T15:57:04.379Z,100033.04
2022-12-29T15:59:33.409Z,100038.92
2022-12-29T16:01:47.489Z,100020.61
2022-12-29T16:04:02.237Z,100031.39
2022-12-29T16:06:30.640Z,100039.96
2022-12-29T16:08:45.096Z,100029.41
2022-12-29T16:10:59.999Z,100031.20
2022-12-29T16:13:28.319Z,100042.52
2022-12-29T16:15:42.124Z,100021.86
2022-12-29T16:18:40.228Z,100021.48
2022-12-29T16:20:54.295Z,100034.88
2022-12-29T16:23:08.072Z,100035.90
2022-12-29T16:25:27.073Z,100029.11
2022-12-29T16:27:46.600Z,100030.43
2022-12-29T16:30:01.142Z,100031.64
2022-12-29T16:32:35.699Z,100032.73
2022-12-29T16:34:51.869Z,100024.70
2022-12-29T16:37:07.173Z,100018.46
2022-12-29T16:39:39.303Z,100019.00
2022-12-29T16:41:53.958Z,100016.77
2022-12-29T16:44:23.858Z,100016.52
2022-12-29T16:46:37.772Z,100020.13
2022-12-29T16:48:58.686Z,100013.36
2022-12-29T16:51:17.817Z,100009.89
2022-12-29T16:53:36.180Z,100013.63
2022-12-29T16:55:53.867Z,100021.31
2022-12-29T16:58:07.627Z,100019.17
2022-12-29T17:00:29.065Z,100021.69
2022-12-29T17:02:47.243Z,100010.31
2022-12-29T17:05:00.821Z,100015.83
2022-12-29T17:07:20.396Z,100003.71
2022-12-29T17:09:34.905Z,100000.87
2022-12-29T17:12:05.345Z,100007.17
2022-12-29T17:14:34.792Z,100006.52
2022-12-29T17:16:48.266Z,100004.88
2022-12-29T17:19:01.760Z,100011.20
2022-12-29T17:21:15.579Z,100008.67
2022-12-29T17:23:29.293Z,100013.50
2022-12-29T17:25:43.932Z,100013.48
2022-12-29T17:28:00.526Z,100013.35
2022-12-29T17:30:19.791Z,100014.27
2022-12-29T17:32:34.041Z,100016.81
2022-12-29T17:34:48.527Z,100016.56
2022-12-29T17:37:02.223Z,100014.71
2022-12-29T17:39:15.877Z,100017.89
2022-12-29T17:41:29.988Z,100025.95
2022-12-29T17:43:43.752Z,100021.59
2022-12-29T17:46:00.301Z,100029.44
2022-12-29T17:48:18.107Z,100027.57
2022-12-29T17:50:32.762Z,100027.63
2022-12-29T17:52:47.454Z,100031.73
2022-12-29T17:55:02.302Z,100032.27
2022-12-29T17:57:18.995Z,100040.17
2022-12-29T17:59:33.342Z,100047.21
2022-12-29T18:01:48.221Z,100046.33
2022-12-29T18:04:01.843Z,100048.24
2022-12-29T18:06:17.171Z,100053.27
2022-12-29T18:08:31.938Z,100053.98
2022-12-29T18:10:46.318Z,100058.30
2022-12-29T18:13:02.507Z,100056.52
2022-12-29T18:15:24.612Z,100058.84
2022-12-29T18:17:39.023Z,100060.45
2022-12-29T18:19:56.111Z,100064.75
2022-12-29T18:22:09.837Z,100073.91
2022-12-29T18:24:23.598Z,100077.87
2022-12-29T18:26:38.869Z,100073.64
2022-12-29T18:28:52.734Z,100072.89
2022-12-29T18:31:14.126Z,100080.57
2022-12-29T18:33:28.836Z,100080.93
2022-12-29T18:35:46.003Z,100084.20
2022-12-29T18:38:00.135Z,100091.19
2022-12-29T18:40:16.479Z,100096.41
2022-12-29T18:42:30.439Z,100102.20
2022-12-29T18:44:44.887Z,100106.31
2022-12-29T18:46:58.782Z,100109.05
2022-12-29T18:49:12.790Z,100105.27
2022-12-29T18:51:28.490Z,100107.99
2022-12-29T18:53:42.278Z,100108.34
2022-12-29T18:55:58.556Z,100113.05
2022-12-29T18:58:11.936Z,100119.95
2022-12-29T19:00:27.427Z,100126.15
2022-12-29T19:02:41.114Z,100127.30
2022-12-29T19:05:00.896Z,100124.83
2022-12-29T19:07:17.239Z,100129.77
2022-12-29T19:09:30.628Z,100127.49
2022-12-29T19:11:44.334Z,100125.46
2022-12-29T19:13:57.736Z,100125.02
2022-12-29T19:16:15.365Z,100116.04
2022-12-29T19:18:50.878Z,100122.55
2022-12-29T19:21:03.257Z,100125.97
2022-12-29T19:23:18.949Z,100125.57
2022-12-29T19:25:33.325Z,100124.01
2022-12-29T19:27:46.771Z,100128.66
2022-12-29T19:30:00.724Z,100126.15
2022-12-29T19:32:14.256Z,100127.22
2022-12-29T19:34:28.227Z,100122.45
2022-12-29T19:36:41.985Z,100122.09
2022-12-29T19:38:55.942Z,100124.26
2022-12-29T19:41:13.172Z,100128.60
2022-12-29T19:43:27.284Z,100124.31
2022-12-29T19:45:41.559Z,100126.66
2022-12-29T19:47:55.846Z,100124.45
2022-12-29T19:50:10.908Z,100126.88
2022-12-29T19:52:24.717Z,100124.63
2022-12-29T19:54:40.857Z,100125.81
2022-12-29T19:56:54.347Z,100119.64
2022-12-29T19:59:08.183Z,100115.21
2022-12-29T20:01:24.083Z,100119.42
2022-12-29T20:03:41.496Z,100113.52
2022-12-29T20:05:56.486Z,100110.88
2022-12-29T20:08:10.394Z,100110.25
2022-12-29T20:10:24.310Z,100105.02
2022-12-29T20:12:39.050Z,100106.59
2022-12-29T20:14:53.387Z,100108.52
2022-12-29T20:17:12.130Z,100104.29
2022-12-29T20:19:25.569Z,100107.22
2022-12-29T20:21:39.238Z,100110.13
2022-12-29T20:23:53.466Z,100110.67
2022-12-29T20:26:07.809Z,100110.84
2022-12-29T20:28:21.592Z,100107.16
2022-12-29T20:30:35.031Z,100103.14
2022-12-29T20:32:48.458Z,100103.48
2022-12-29T20:35:02.049Z,100108.53
2022-12-29T20:37:16.929Z,100106.27
2022-12-29T20:39:32.988Z,100105.52
2022-12-29T20:41:47.120Z,100100.66
2022-12-29T20:44:01.162Z,100094.83
2022-12-29T20:46:20.891Z,100092.83
2022-12-29T20:48:36.099Z,100084.45
2022-12-29T20:50:49.619Z,100082.20
2022-12-29T20:53:03.648Z,100085.56
2022-12-29T20:55:17.358Z,100077.59
2022-12-29T20:57:49.678Z,100079.08
2022-12-29T21:00:04.709Z,100073.29
2022-12-29T21:02:27.735Z,100065.14
2022-12-29T21:05:13.551Z,100063.80
2022-12-29T21:07:19.764Z,100059.44
2022-12-29T21:09:34.172Z,100057.30
2022-12-29T21:11:47.751Z,100058.12
2022-12-29T21:14:02.035Z,100059.05
2022-12-29T21:16:20.205Z,100060.30
2022-12-29T21:18:34.560Z,100056.69
2022-12-29T21:20:47.944Z,100060.89
2022-12-29T21:23:02.921Z,100060.61
2022-12-29T21:25:16.841Z,100059.88
2022-12-29T21:27:30.618Z,100060.02
2022-12-29T21:29:44.523Z,100062.90
2022-12-29T21:32:01.085Z,100061.16
2022-12-29T21:34:19.706Z,100064.00
2022-12-29T21:36:33.958Z,100069.70
2022-12-29T21:38:47.516Z,100073.45
2022-12-29T21:41:02.797Z,100068.40
2022-12-29T21:43:17.097Z,100067.63
2022-12-29T21:45:32.312Z,100068.30
2022-12-29T21:48:02.454Z,100068.34
2022-12-29T21:50:16.364Z,100071.56
2022-12-29T21:52:29.743Z,100071.18
2022-12-29T21:54:59.734Z,100068.37
2022-12-29T21:57:20.919Z,100069.88
2022-12-29T21:59:51.291Z,100070.30
2022-12-29T22:02:21.967Z,100072.23
2022-12-29T22:04:52.415Z,100072.86
2022-12-29T22:07:23.862Z,100075.22
2022-12-29T22:09:54.356Z,100068.52
2022-12-29T22:12:24.187Z,100062.48
2022-12-29T22:14:38.115Z,100063.36
2022-12-29T22:16:51.944Z,100060.27
2022-12-29T22:19:06.130Z,100056.91
2022-12-29T22:21:19.591Z,100050.45
2022-12-29T22:23:33.425Z,100050.38
2022-12-29T22:25:47.914Z,100052.94
2022-12-29T22:28:02.356Z,100053.13
2022-12-29T22:30:17.288Z,100052.09
2022-12-29T22:32:31.102Z,100055.50
2022-12-29T22:34:44.901Z,100054.56
2022-12-29T22:36:58.769Z,100056.86
2022-12-29T22:39:13.081Z,100059.36
2022-12-29T22:41:27.885Z,100061.98
2022-12-29T22:43:42.137Z,100066.04
2022-12-29T22:45:55.510Z,100067.09
2022-12-29T22:48:09.950Z,100068.62
2022-12-29T22:50:23.423Z,100071.50
2022-12-29T22:52:37.135Z,100071.42
2022-12-29T22:54:50.711Z,100076.44
2022-12-29T22:57:04.390Z,100078.71
2022-12-29T22:59:18.740Z,100078.66
2022-12-29T23:01:32.455Z,100083.27
2022-12-29T23:03:46.253Z,100083.48
2022-12-29T23:06:09.543Z,100082.83
2022-12-29T23:08:23.392Z,100085.08
2022-12-29T23:10:37.265Z,100081.91
2022-12-29T23:12:51.150Z,100085.52
2022-12-29T23:15:04.926Z,100082.34
2022-12-29T23:17:18.522Z,100084.13
2022-12-29T23:19:32.242Z,100081.88
2022-12-29T23:21:46.046Z,100081.09
2022-12-29T23:24:05.352Z,100083.32
2022-12-29T23:26:19.599Z,100078.83
2022-12-29T23:28:33.324Z,100079.09
2022-12-29T23:30:47.148Z,100080.40
2022-12-29T23:33:00.897Z,100075.24
2022-12-29T23:35:15.474Z,100074.25
2022-12-29T23:37:28.923Z,100072.92
2022-12-29T23:39:42.510Z,100074.57
2022-12-29T23:41:56.224Z,100076.39
2022-12-29T23:44:10.219Z,100071.16
2022-12-29T23:46:25.016Z,100069.59
2022-12-29T23:48:38.835Z,100068.55
2022-12-29T23:50:53.205Z,100063.05
2022-12-29T23:53:06.924Z,100057.91
2022-12-29T23:55:20.832Z,100060.61
2022-12-29T23:57:35.063Z,100056.54
2022-12-29T23:59:48.407Z,100052.82
